UKBB/KBP METAR and TAF weather

Enter ICAO airport designator
Station Type Date Time Source
UKBB METAR 2019/10/19 08:00 UTC NOAA

UKBB 190800Z 17002MPS 130V230 CAVOK 18/09 Q1020 R88/CLRD// NOSIG


Station Type Date Time Source
UKBB Decoded METAR 2019/10/19 08:00 UTC NOAA

Boryspil, Ukraine (UKBB) 50-20N 030-58E 122M
Oct 19, 2019 - 04:00 AM EDT / 2019.10.19 0800 UTC
Wind: from the S (170 degrees) at 4 MPH (4 KT) (direction variable):0
Visibility: greater than 7 mile(s):0
Temperature: 64 F (18 C)
Dew Point: 48 F (9 C)
Relative Humidity: 55%
Pressure (altimeter): 30.12 in. Hg (1020 hPa)
ob: UKBB 190800Z 17002MPS 130V230 CAVOK 18/09 Q1020 R88/CLRD// NOSIG
cycle: 8

Station Type Date Time Source
UKBB TAF 2019/10/19 06:24 UTC NOAA

TAF TAF UKBB 190501Z 1906/2006 17003G08MPS 9999 SCT040
TEMPO 1906/1908 1400 BR SCT004
BECMG 1916/1918 VRB01MPS 6000 SCT010
TEMPO 1918/1924 2000 BR SCT005
TEMPO 2000/2006 0400 FG VV002

Example: see airport list